Time;durP1;ratioP1;P1;durP2;ratioP2;P2;SDS_P1;SDS_P2;PMS_P1;PMS_P2;Temp;Humidity;BMP_temperature;BMP_pressure;BME280_temperature;BME280_humidity;BME280_pressure;Samples;Min_cycle;Max_cycle;Signal;HPM_P1;HPM_P2
2021/12/07 00:02:07;;;;;;;16.65;11.68;;;;;;;1.82;100.00;99584.13;5017040;28;20049;-52
2021/12/07 00:04:34;;;;;;;20.20;12.45;;;;;;;1.73;100.00;99573.00;5016250;28;20052;-52
2021/12/07 00:07:23;;;;;;;14.85;9.32;;;;;;;1.65;100.00;99558.44;5007812;28;20049;-58
2021/12/07 00:09:50;;;;;;;17.13;10.05;;;;;;;1.66;100.00;99549.69;5008898;28;21937;-53
2021/12/07 00:12:33;;;;;;;14.70;10.63;;;;;;;1.71;100.00;99558.28;5012749;28;20049;-53
2021/12/07 00:15:08;;;;;;;15.93;9.88;;;;;;;1.77;100.00;99550.28;5012674;28;20045;-52
2021/12/07 00:17:35;;;;;;;18.70;11.55;;;;;;;1.75;100.00;99552.94;5011550;28;20049;-50
2021/12/07 00:20:25;;;;;;;21.60;11.40;;;;;;;1.81;100.00;99561.53;5011174;28;20068;-53
2021/12/07 00:23:05;;;;;;;14.15;9.20;;;;;;;1.82;100.00;99555.41;5017128;28;20041;-53
2021/12/07 00:25:39;;;;;;;15.27;9.45;;;;;;;1.72;100.00;99547.81;5012153;28;20617;-54
2021/12/07 00:28:05;;;;;;;15.50;9.18;;;;;;;1.64;100.00;99541.06;5003739;28;20053;-55
2021/12/07 00:30:42;;;;;;;14.82;9.30;;;;;;;1.59;100.00;99541.16;5015773;28;20052;-52
2021/12/07 00:36:32;;;;;;;19.38;11.32;;;;;;;1.54;100.00;99534.34;5014892;28;20094;-53
2021/12/07 00:39:06;;;;;;;18.98;10.23;;;;;;;1.58;100.00;99526.38;5013284;28;20056;-54
2021/12/07 00:41:41;;;;;;;18.00;9.88;;;;;;;1.59;100.00;99530.72;5014228;28;20057;-52
2021/12/07 00:44:08;;;;;;;16.42;9.85;;;;;;;1.51;100.00;99506.56;5016199;28;20448;-51
2021/12/07 00:46:35;;;;;;;17.10;10.07;;;;;;;1.59;100.00;99508.97;5005041;28;20053;-54
2021/12/07 00:49:03;;;;;;;16.20;10.07;;;;;;;1.62;100.00;99521.97;5018892;28;20128;-52
2021/12/07 00:51:31;;;;;;;14.95;9.15;;;;;;;1.61;100.00;99513.28;5020127;28;20050;-53
2021/12/07 00:54:01;;;;;;;14.95;9.85;;;;;;;1.65;100.00;99524.50;5023782;28;20063;-59
2021/12/07 00:56:28;;;;;;;16.23;10.13;;;;;;;1.65;100.00;99514.06;5016607;28;20132;-52
2021/12/07 00:59:05;;;;;;;14.30;8.88;;;;;;;1.66;100.00;99510.56;5021431;28;20133;-52
2021/12/07 01:01:31;;;;;;;16.92;10.00;;;;;;;1.64;100.00;99512.34;5023208;28;20136;-54
2021/12/07 01:04:07;;;;;;;14.88;9.38;;;;;;;1.65;100.00;99504.47;5011117;28;20054;-52
2021/12/07 01:06:47;;;;;;;16.95;9.00;;;;;;;1.64;100.00;99507.13;5007832;28;20044;-53
2021/12/07 01:24:39;;;;;;;15.75;9.88;;;;;;;1.58;100.00;99505.50;4982609;28;20058;-51
2021/12/07 01:26:32;;;;;;;15.13;9.65;;;;;;;1.43;100.00;99492.84;5008017;28;20075;-52
2021/12/07 01:28:59;;;;;;;16.15;10.32;;;;;;;1.49;100.00;99497.94;5008739;28;20046;-52
2021/12/07 01:31:43;;;;;;;15.32;10.05;;;;;;;1.50;100.00;99501.41;5016029;28;20050;-52
2021/12/07 01:48:01;;;;;;;14.55;10.00;;;;;;;0.99;100.00;99507.78;5010163;28;20050;-51
2021/12/07 01:59:34;;;;;;;16.63;11.52;;;;;;;0.80;100.00;99490.84;5015689;28;20069;-51
2021/12/07 02:02:31;;;;;;;18.10;11.98;;;;;;;0.84;100.00;99491.63;5019926;28;20041;-52
2021/12/07 02:05:00;;;;;;;19.05;11.68;;;;;;;0.79;100.00;99490.91;5019760;28;20038;-51
2021/12/07 02:07:29;;;;;;;22.20;13.50;;;;;;;0.64;100.00;99479.03;5015768;28;20048;-51
2021/12/07 02:10:07;;;;;;;19.60;13.07;;;;;;;0.68;100.00;99485.91;5024085;28;20132;-50
2021/12/07 02:16:11;;;;;;;25.38;15.05;;;;;;;0.76;100.00;99488.34;4967425;28;20058;-53
2021/12/07 02:18:40;;;;;;;25.90;15.05;;;;;;;0.85;100.00;99488.13;5008130;28;20057;-51
2021/12/07 02:21:30;;;;;;;22.60;13.25;;;;;;;0.97;100.00;99498.28;5017497;28;20103;-51
2021/12/07 02:24:06;;;;;;;23.10;13.77;;;;;;;1.09;100.00;99502.38;5013322;28;20037;-51
2021/12/07 02:26:51;;;;;;;27.88;15.20;;;;;;;1.17;100.00;99492.63;5006827;28;20041;-51
2021/12/07 02:29:19;;;;;;;31.23;16.65;;;;;;;1.22;100.00;99489.03;5014782;28;20056;-51
2021/12/07 02:31:50;;;;;;;25.45;14.55;;;;;;;1.42;100.00;99501.56;5014411;28;20054;-51
2021/12/07 02:34:21;;;;;;;21.92;13.63;;;;;;;1.59;100.00;99496.78;5007535;28;20103;-53
2021/12/07 02:37:03;;;;;;;19.85;12.63;;;;;;;1.75;100.00;99507.72;5010653;28;20064;-52
2021/12/07 02:39:47;;;;;;;;;;;;;;;;;;;;;
2021/12/07 02:42:20;;;;;;;22.40;13.57;;;;;;;1.83;100.00;99505.78;5019776;28;20471;-51
2021/12/07 02:44:56;;;;;;;21.90;12.52;;;;;;;1.91;100.00;99506.41;5016569;28;20049;-57
2021/12/07 02:47:23;;;;;;;20.33;12.75;;;;;;;1.97;100.00;99514.09;5013123;28;20048;-51
2021/12/07 02:49:50;;;;;;;22.05;12.23;;;;;;;1.99;100.00;99501.88;5018025;28;20046;-52
2021/12/07 02:52:18;;;;;;;20.23;11.68;;;;;;;2.05;100.00;99517.34;5010526;28;20363;-51
2021/12/07 02:54:49;;;;;;;20.05;11.73;;;;;;;2.13;100.00;99522.38;5019147;28;20046;-51
2021/12/07 02:57:34;;;;;;;19.98;12.00;;;;;;;2.13;100.00;99518.91;5014798;28;20072;-50
2021/12/07 03:00:16;;;;;;;20.75;11.13;;;;;;;2.17;100.00;99508.34;5020687;28;20132;-52
2021/12/07 03:02:55;;;;;;;16.83;10.43;;;;;;;2.37;100.00;99526.94;5002567;28;20050;-51
2021/12/07 03:28:11;;;;;;;15.15;9.68;;;;;;;2.51;100.00;99534.41;5017759;28;20059;-53
2021/12/07 03:30:38;;;;;;;14.55;9.15;;;;;;;2.52;100.00;99538.72;5015086;28;20053;-52
2021/12/07 03:33:09;;;;;;;13.55;9.35;;;;;;;2.58;100.00;99538.56;5020573;28;20080;-51
2021/12/07 03:35:36;;;;;;;14.23;8.82;;;;;;;2.49;100.00;99524.91;5020636;28;20038;-51
2021/12/07 03:38:10;;;;;;;15.43;9.57;;;;;;;2.57;100.00;99538.59;5008655;28;20042;-52
2021/12/07 03:40:40;;;;;;;16.77;9.50;;;;;;;2.58;100.00;99545.53;5017088;28;20510;-52
2021/12/07 03:43:16;;;;;;;14.75;8.52;;;;;;;2.67;100.00;99545.28;5006204;28;20582;-53
2021/12/07 03:45:55;;;;;;;20.08;8.18;;;;;;;2.72;100.00;99548.59;5017367;28;20041;-52
2021/12/07 03:48:25;;;;;;;11.77;7.40;;;;;;;2.74;100.00;99558.13;5014300;28;20072;-54
2021/12/07 03:50:52;;;;;;;12.50;7.93;;;;;;;2.75;100.00;99559.84;5017588;28;20404;-52
2021/12/07 03:53:18;;;;;;;11.80;6.97;;;;;;;2.81;100.00;99558.81;5018370;28;20049;-51
2021/12/07 03:55:54;;;;;;;12.23;7.80;;;;;;;2.81;100.00;99567.53;5017634;28;20049;-51
2021/12/07 03:58:20;;;;;;;11.38;7.13;;;;;;;2.82;100.00;99568.38;5017690;28;20685;-54
2021/12/07 04:00:47;;;;;;;13.23;6.65;;;;;;;2.92;100.00;99564.59;5015023;28;20528;-50
2021/12/07 04:03:19;;;;;;;13.15;7.10;;;;;;;2.89;100.00;99566.44;5007950;28;20074;-51
2021/12/07 04:06:05;;;;;;;7.88;5.55;;;;;;;2.96;100.00;99570.59;5015915;28;20049;-52
2021/12/07 04:08:49;;;;;;;;;;;;;;;;;;;;;
2021/12/07 04:11:33;;;;;;;12.68;5.25;;;;;;;2.99;100.00;99580.97;5007533;28;20045;-51
2021/12/07 04:14:29;;;;;;;11.65;5.53;;;;;;;3.02;100.00;99580.84;5016522;28;20068;-52
2021/12/07 04:17:08;;;;;;;9.23;4.82;;;;;;;3.07;100.00;99585.06;5010930;28;20049;-51
2021/12/07 04:19:37;;;;;;;11.60;5.30;;;;;;;3.11;100.00;99585.84;5012368;28;20053;-54
2021/12/07 04:22:13;;;;;;;11.07;5.30;;;;;;;3.13;100.00;99586.66;5009030;28;20500;-52
2021/12/07 04:24:42;;;;;;;10.20;4.93;;;;;;;3.15;100.00;99590.06;5020978;28;20045;-51
2021/12/07 04:27:09;;;;;;;8.68;4.82;;;;;;;3.13;100.00;99592.75;5018649;28;20053;-51
2021/12/07 04:29:45;;;;;;;12.35;4.60;;;;;;;3.18;100.00;99600.44;5015012;28;20135;-51
2021/12/07 04:32:24;;;;;;;9.57;3.40;;;;;;;3.24;100.00;99608.13;5012310;28;20050;-51
2021/12/07 04:34:51;;;;;;;9.43;4.00;;;;;;;3.30;100.00;99604.47;5013290;28;20045;-53
2021/12/07 04:37:22;;;;;;;10.05;3.63;;;;;;;3.29;100.00;99601.00;5017055;28;20056;-52
2021/12/07 04:39:50;;;;;;;18.40;4.18;;;;;;;3.31;100.00;99611.38;5014010;28;20046;-51
2021/12/07 04:42:20;;;;;;;12.18;4.32;;;;;;;3.34;100.00;99600.84;5010386;28;20041;-50
2021/12/07 04:44:53;;;;;;;14.90;3.55;;;;;;;3.47;100.00;99616.09;5015487;28;20445;-53
2021/12/07 04:47:39;;;;;;;10.32;3.45;;;;;;;3.49;100.00;99616.06;5014580;28;20052;-51
2021/12/07 04:50:33;;;;;;;10.93;3.63;;;;;;;3.57;100.00;99634.16;5011101;28;20052;-51
2021/12/07 04:58:45;;;;;;;12.18;3.22;;;;;;;3.57;100.00;99642.03;5016594;28;20057;-51
2021/12/07 05:01:18;;;;;;;9.77;2.70;;;;;;;3.56;100.00;99637.69;5008845;28;20050;-52
2021/12/07 05:04:10;;;;;;;15.30;3.25;;;;;;;3.53;100.00;99652.56;5009811;28;20172;-51
2021/12/07 05:07:19;;;;;;;9.38;3.25;;;;;;;3.51;100.00;99658.75;5015416;28;20042;-53
2021/12/07 05:10:11;;;;;;;12.43;3.28;;;;;;;3.54;100.00;99661.28;5014758;28;20068;-51
2021/12/07 05:15:56;;;;;;;11.35;3.20;;;;;;;3.58;100.00;99673.41;5019240;28;20060;-52
2021/12/07 05:24:09;;;;;;;14.35;3.65;;;;;;;3.55;100.00;99675.25;5017517;28;20061;-52
2021/12/07 05:40:36;;;;;;;16.25;3.65;;;;;;;3.48;100.00;99692.88;5016608;28;20041;-51
2021/12/07 05:43:15;;;;;;;22.50;3.90;;;;;;;3.53;100.00;99710.16;5011327;28;20127;-51
2021/12/07 05:46:00;;;;;;;14.55;3.50;;;;;;;3.62;100.00;99713.44;5023161;28;20041;-52
2021/12/07 05:48:44;;;;;;;13.23;3.25;;;;;;;3.70;100.00;99709.66;5018484;28;20528;-52
2021/12/07 05:51:15;;;;;;;16.85;4.05;;;;;;;3.66;100.00;99733.38;5011341;28;20050;-51
2021/12/07 05:53:51;;;;;;;12.23;3.05;;;;;;;3.82;100.00;99729.38;5013382;28;20045;-53
2021/12/07 05:56:23;;;;;;;12.82;3.20;;;;;;;3.67;100.00;99730.69;5022156;28;20558;-52
2021/12/07 05:58:54;;;;;;;12.07;3.60;;;;;;;3.68;100.00;99735.03;5027127;28;20072;-52
2021/12/07 06:01:21;;;;;;;17.65;3.38;;;;;;;3.75;100.00;99744.44;5017099;28;20063;-53
2021/12/07 06:03:56;;;;;;;15.52;3.42;;;;;;;3.76;100.00;99751.41;5022518;28;20056;-51
2021/12/07 06:06:39;;;;;;;15.65;3.72;;;;;;;3.65;100.00;99760.44;5024670;28;20144;-52
2021/12/07 06:09:14;;;;;;;17.17;4.07;;;;;;;3.68;100.00;99755.97;5018554;28;20049;-54
2021/12/07 06:12:17;;;;;;;15.35;3.72;;;;;;;3.58;100.00;99753.69;5008811;28;20045;-53
2021/12/07 06:14:48;;;;;;;11.52;3.53;;;;;;;3.56;100.00;99758.97;5021109;28;20053;-53
2021/12/07 06:17:18;;;;;;;16.60;3.33;;;;;;;3.57;100.00;99776.38;5019933;28;20406;-53
2021/12/07 06:19:53;;;;;;;13.70;3.58;;;;;;;3.59;100.00;99777.22;5016521;28;20060;-52
2021/12/07 06:22:22;;;;;;;9.90;3.60;;;;;;;3.57;100.00;99783.38;5011622;28;20058;-52
2021/12/07 06:24:52;;;;;;;14.13;3.42;;;;;;;3.46;100.00;99768.00;5021978;28;20045;-52
2021/12/07 06:27:20;;;;;;;13.40;3.58;;;;;;;3.56;100.00;99787.75;5018535;28;20053;-52
2021/12/07 06:29:47;;;;;;;14.68;3.78;;;;;;;3.59;100.00;99789.44;5022238;28;20044;-53
2021/12/07 06:32:36;;;;;;;11.77;4.05;;;;;;;3.56;100.00;99794.75;5016506;28;20056;-52
2021/12/07 06:35:04;;;;;;;12.18;3.40;;;;;;;3.54;100.00;99789.56;5017330;28;20611;-54
2021/12/07 06:37:35;;;;;;;15.48;3.90;;;;;;;3.55;100.00;99799.13;5009673;28;20136;-55
2021/12/07 06:40:10;;;;;;;11.20;3.90;;;;;;;3.56;100.00;99794.75;5009074;28;20046;-52
2021/12/07 06:42:45;;;;;;;13.95;3.70;;;;;;;3.60;100.00;99804.25;5014963;28;20104;-52
2021/12/07 06:45:19;;;;;;;13.23;4.13;;;;;;;3.67;100.00;99814.50;5013383;28;20045;-50
2021/12/07 06:47:48;;;;;;;11.43;3.63;;;;;;;3.75;100.00;99833.47;5010856;28;20042;-51
2021/12/07 06:50:20;;;;;;;10.68;3.50;;;;;;;3.71;100.00;99834.47;5009090;28;20045;-57
2021/12/07 06:52:52;;;;;;;11.82;4.00;;;;;;;3.67;100.00;99840.66;5000696;28;20045;-50
2021/12/07 06:55:25;;;;;;;12.48;3.85;;;;;;;3.76;100.00;99845.66;5002961;28;20048;-52
2021/12/07 06:58:03;;;;;;;15.80;4.00;;;;;;;3.69;100.00;99851.09;5008560;28;20104;-52
2021/12/07 07:00:32;;;;;;;16.80;4.75;;;;;;;3.64;100.00;99856.47;5007442;28;20541;-53
2021/12/07 07:03:12;;;;;;;15.00;4.45;;;;;;;3.60;100.00;99873.19;5012891;28;20049;-52
2021/12/07 07:06:00;;;;;;;15.77;4.47;;;;;;;3.63;100.00;99880.91;5009655;28;20057;-52
2021/12/07 07:08:28;;;;;;;13.60;3.80;;;;;;;3.65;100.00;99881.75;5010530;28;20063;-54
2021/12/07 07:10:57;;;;;;;12.80;4.63;;;;;;;3.68;100.00;99886.91;5007414;28;20050;-53
2021/12/07 07:13:32;;;;;;;13.00;4.40;;;;;;;3.70;100.00;99879.88;5011705;28;20054;-52
2021/12/07 07:16:03;;;;;;;13.25;4.97;;;;;;;3.70;100.00;99890.34;5013664;28;20045;-52
2021/12/07 07:18:46;;;;;;;17.63;5.18;;;;;;;3.71;100.00;99899.06;4998603;28;20045;-52
2021/12/07 07:21:16;;;;;;;13.35;4.82;;;;;;;3.70;100.00;99903.44;5008839;28;20057;-53
2021/12/07 07:23:43;;;;;;;16.20;4.32;;;;;;;3.66;100.00;99898.31;5007140;28;20083;-53
2021/12/07 07:26:10;;;;;;;13.48;4.00;;;;;;;3.58;100.00;99888.06;5011414;28;20053;-54
2021/12/07 07:28:37;;;;;;;9.23;3.67;;;;;;;3.69;100.00;99906.09;5013688;28;20598;-51
2021/12/07 07:31:10;;;;;;;14.57;4.68;;;;;;;3.67;100.00;99911.38;5010527;28;20041;-52
2021/12/07 07:33:39;;;;;;;15.27;4.70;;;;;;;3.69;100.00;99909.56;5004994;28;20133;-53
2021/12/07 07:36:09;;;;;;;20.35;5.55;;;;;;;3.73;100.00;99924.31;5008871;28;20037;-52
2021/12/07 07:38:45;;;;;;;12.43;3.70;;;;;;;3.76;100.00;99928.63;5011620;28;20516;-53
2021/12/07 07:41:13;;;;;;;11.60;4.20;;;;;;;3.74;100.00;99936.50;5008548;28;20045;-52
2021/12/07 07:43:43;;;;;;;12.40;4.15;;;;;;;3.78;100.00;99926.78;5005253;28;20057;-52
2021/12/07 07:46:13;;;;;;;15.50;3.83;;;;;;;3.80;100.00;99938.09;5007068;28;20045;-52
2021/12/07 07:48:40;;;;;;;11.82;4.38;;;;;;;3.78;100.00;99932.88;4982618;28;20170;-53
2021/12/07 07:51:07;;;;;;;13.45;4.05;;;;;;;3.82;100.00;99934.53;4983012;28;20054;-54
2021/12/07 07:53:41;;;;;;;11.95;3.88;;;;;;;3.84;100.00;99937.97;4982403;28;20117;-54
2021/12/07 07:56:08;;;;;;;10.52;3.60;;;;;;;3.83;100.00;99946.72;4983159;28;20060;-52
2021/12/07 07:59:03;;;;;;;12.07;3.38;;;;;;;3.90;100.00;99951.81;5017898;28;20033;-54
2021/12/07 08:01:39;;;;;;;13.37;4.30;;;;;;;3.88;100.00;99944.84;5011102;28;20052;-51
2021/12/07 08:04:36;;;;;;;12.73;4.18;;;;;;;3.84;100.00;99940.59;5010903;28;20060;-54
2021/12/07 08:07:10;;;;;;;13.20;4.30;;;;;;;3.79;100.00;99939.84;5013347;28;20053;-54
2021/12/07 08:09:53;;;;;;;16.88;4.00;;;;;;;3.74;100.00;99941.75;4987398;28;27147;-53
2021/12/07 08:12:20;;;;;;;17.55;4.65;;;;;;;3.72;100.00;99948.78;4954106;28;20058;-52
2021/12/07 08:14:52;;;;;;;13.63;4.50;;;;;;;3.73;100.00;99955.72;4954802;28;20113;-54
2021/12/07 08:17:22;;;;;;;13.13;4.00;;;;;;;3.77;100.00;99957.38;4951423;28;20047;-52
2021/12/07 08:20:01;;;;;;;17.07;4.27;;;;;;;3.63;100.00;99949.00;4958536;28;20527;-52
2021/12/07 08:22:29;;;;;;;12.10;4.05;;;;;;;3.70;100.00;99968.03;4952249;28;20508;-53
2021/12/07 08:24:58;;;;;;;17.05;4.00;;;;;;;3.72;100.00;99974.09;4952414;28;20050;-53
2021/12/07 08:27:26;;;;;;;11.32;3.70;;;;;;;3.77;100.00;99980.94;4951843;28;20043;-53
2021/12/07 08:29:55;;;;;;;9.52;3.80;;;;;;;3.81;100.00;99974.72;4959136;28;20054;-53
2021/12/07 08:32:28;;;;;;;11.73;3.50;;;;;;;3.88;100.00;99978.03;4954093;28;20043;-53
2021/12/07 08:34:55;;;;;;;10.25;3.75;;;;;;;3.97;99.21;99987.41;4955619;28;20059;-53
2021/12/07 08:37:22;;;;;;;16.08;3.95;;;;;;;3.91;100.00;99988.44;4956809;28;20043;-53
2021/12/07 08:39:49;;;;;;;12.57;4.05;;;;;;;3.90;100.00;99985.88;4955426;28;20483;-52
2021/12/07 08:42:19;;;;;;;12.50;3.78;;;;;;;3.80;100.00;99964.28;4957214;28;20134;-53
2021/12/07 08:44:47;;;;;;;8.32;3.53;;;;;;;3.94;100.00;99984.84;4952933;28;20179;-52
2021/12/07 08:47:14;;;;;;;10.38;3.67;;;;;;;3.94;99.95;99990.09;4950591;28;20047;-52
2021/12/07 08:50:06;;;;;;;10.35;3.28;;;;;;;3.84;100.00;99992.09;4953456;28;20125;-51
2021/12/07 08:52:44;;;;;;;10.43;3.97;;;;;;;3.80;100.00;99987.84;4946791;28;20054;-53
2021/12/07 09:00:35;;;;;;;11.40;3.50;;;;;;;4.14;100.00;99986.06;4949604;28;20670;-53
2021/12/07 09:03:02;;;;;;;10.43;3.60;;;;;;;4.24;97.87;99986.69;4950850;28;20436;-52
2021/12/07 09:05:32;;;;;;;12.30;3.92;;;;;;;4.30;96.05;99993.50;4950420;28;20070;-52
2021/12/07 09:08:08;;;;;;;10.77;3.40;;;;;;;4.38;96.54;100002.88;4952183;28;20070;-52
2021/12/07 09:10:36;;;;;;;18.83;4.30;;;;;;;4.42;98.88;100004.50;4947255;28;20654;-52
2021/12/07 09:13:06;;;;;;;13.45;4.63;;;;;;;4.50;98.79;99997.28;4945747;28;20058;-52
2021/12/07 09:15:37;;;;;;;14.52;5.25;;;;;;;4.61;97.31;100011.84;4954128;28;20465;-52
2021/12/07 09:18:20;;;;;;;12.63;4.43;;;;;;;4.65;97.22;100000.38;4945717;28;26602;-52
2021/12/07 09:20:51;;;;;;;13.48;4.85;;;;;;;4.65;96.36;100008.22;4939831;28;20062;-52
2021/12/07 09:23:18;;;;;;;11.43;4.27;;;;;;;4.74;94.34;100008.81;4933447;28;20058;-52
2021/12/07 09:26:10;;;;;;;8.00;3.72;;;;;;;4.84;94.31;100019.91;4940140;28;20685;-55
2021/12/07 09:28:41;;;;;;;12.73;3.95;;;;;;;4.95;93.00;100030.94;4930803;28;20055;-52
2021/12/07 09:31:16;;;;;;;10.00;3.83;;;;;;;5.14;90.36;100026.84;4930548;28;20066;-52
2021/12/07 09:33:43;;;;;;;;;;;;;;;5.17;88.78;100021.53;4936378;28;20047;-53
2021/12/07 09:36:12;;;;;;;14.77;3.00;;;;;;;5.33;86.91;100021.03;4936741;28;20849;-53
2021/12/07 09:38:43;;;;;;;7.33;3.03;;;;;;;5.38;85.08;100019.09;4932550;28;20048;-51
2021/12/07 09:41:18;;;;;;;7.82;3.42;;;;;;;5.37;85.62;100030.50;4937701;28;20571;-51
2021/12/07 09:43:51;;;;;;;12.55;3.67;;;;;;;5.45;86.08;100036.41;4938880;28;20539;-52
2021/12/07 09:46:20;;;;;;;10.38;3.90;;;;;;;5.51;84.88;100030.97;4939572;28;20046;-59
2021/12/07 09:49:03;;;;;;;8.10;3.67;;;;;;;5.50;85.10;100029.25;4940910;28;20047;-53
2021/12/07 09:51:34;;;;;;;9.18;3.67;;;;;;;5.52;85.46;100030.03;4947326;28;20062;-53
2021/12/07 09:54:04;;;;;;;10.05;3.72;;;;;;;5.58;85.96;100035.09;4951523;28;20039;-53
2021/12/07 09:56:31;;;;;;;9.98;3.20;;;;;;;5.55;84.90;100027.31;4948202;28;20059;-53
2021/12/07 09:59:21;;;;;;;11.15;3.58;;;;;;;5.53;83.63;100035.22;4940735;28;20054;-53
2021/12/07 10:01:48;;;;;;;10.48;4.00;;;;;;;5.52;84.51;100028.25;4937421;28;20046;-53
2021/12/07 10:04:27;;;;;;;12.82;3.13;;;;;;;5.55;84.17;100035.19;4947668;28;20039;-52
2021/12/07 10:07:17;;;;;;;16.55;3.97;;;;;;;5.60;83.65;100042.03;4936144;28;20058;-53
2021/12/07 10:09:51;;;;;;;8.63;3.17;;;;;;;5.63;83.90;100041.06;4946855;28;20053;-52
2021/12/07 10:12:23;;;;;;;11.57;2.75;;;;;;;5.81;80.13;100045.72;4940836;28;20047;-53
2021/12/07 10:14:53;;;;;;;6.93;2.60;;;;;;;5.67;81.47;100024.28;4942692;28;20585;-53
2021/12/07 10:17:23;;;;;;;8.77;2.35;;;;;;;5.83;78.47;100045.66;4935498;28;20392;-52
2021/12/07 10:19:54;;;;;;;8.00;2.83;;;;;;;5.83;79.54;100043.88;4938559;28;20080;-55
2021/12/07 10:22:35;;;;;;;7.40;2.33;;;;;;;5.94;78.11;100049.69;4936561;28;20051;-53
2021/12/07 10:25:23;;;;;;;6.10;2.10;;;;;;;5.86;77.84;100045.53;4941214;28;20039;-52
2021/12/07 10:27:51;;;;;;;6.43;2.35;;;;;;;5.83;77.85;100043.88;4936287;28;20058;-53
2021/12/07 10:30:23;;;;;;;9.13;2.10;;;;;;;5.88;76.63;100039.38;4945300;28;20047;-53
2021/12/07 10:33:03;;;;;;;8.35;2.15;;;;;;;5.76;77.61;100036.25;4938822;28;20058;-51
2021/12/07 10:35:36;;;;;;;8.85;1.95;;;;;;;5.70;76.72;100044.34;4943750;28;20058;-53
2021/12/07 10:38:28;;;;;;;7.43;2.03;;;;;;;5.61;77.36;100045.50;4935798;28;20724;-53
2021/12/07 10:41:00;;;;;;;5.32;2.00;;;;;;;5.41;77.45;100029.53;4941339;28;20058;-52
2021/12/07 10:44:11;;;;;;;7.45;1.98;;;;;;;5.47;78.39;100045.09;4942176;28;20196;-53
2021/12/07 10:46:39;;;;;;;6.40;1.88;;;;;;;5.59;77.92;100034.19;4940857;28;20047;-52
2021/12/07 10:49:37;;;;;;;9.30;2.38;;;;;;;5.63;78.51;100030.56;4938661;28;20039;-53
2021/12/07 10:52:11;;;;;;;12.15;2.75;;;;;;;5.76;77.81;100025.75;4939095;28;20533;-53
2021/12/07 10:54:58;;;;;;;7.70;2.10;;;;;;;5.74;78.00;100017.91;4945832;28;20469;-53
2021/12/07 10:57:44;;;;;;;8.20;2.13;;;;;;;5.77;77.67;100009.94;4937341;28;20086;-52
2021/12/07 11:00:11;;;;;;;9.60;2.97;;;;;;;5.92;77.26;100012.09;4942306;28;20054;-54
2021/12/07 11:02:46;;;;;;;13.48;2.65;;;;;;;6.12;76.01;100005.28;4937346;28;20464;-53
2021/12/07 11:05:35;;;;;;;9.57;2.47;;;;;;;6.12;76.27;100002.66;4941898;28;20054;-54
2021/12/07 11:08:09;;;;;;;7.85;2.35;;;;;;;6.04;76.12;99995.03;4938358;28;20516;-51
2021/12/07 11:10:47;;;;;;;6.32;1.88;;;;;;;6.11;74.76;99990.44;4942275;28;20051;-60
2021/12/07 11:13:33;;;;;;;7.80;2.38;;;;;;;6.20;73.78;100000.59;4946510;28;20051;-51
2021/12/07 11:16:11;;;;;;;8.55;2.38;;;;;;;6.23;74.70;100004.00;4937501;28;20209;-56
2021/12/07 11:18:54;;;;;;;9.50;2.97;;;;;;;6.32;75.54;99989.63;4940042;28;20048;-59
2021/12/07 11:21:30;;;;;;;6.13;2.38;;;;;;;6.48;74.40;99996.06;4941087;28;20043;-53
2021/12/07 11:23:58;;;;;;;7.20;2.10;;;;;;;6.63;73.71;99994.63;4937927;28;20809;-52
2021/12/07 11:31:55;;;;;;;7.53;2.10;;;;;;;6.76;72.81;99987.16;4937839;28;20512;-59
2021/12/07 11:34:29;;;;;;;6.05;1.88;;;;;;;6.94;72.03;99983.81;4934369;28;20062;-51
2021/12/07 11:37:04;;;;;;;6.15;2.15;;;;;;;7.10;71.26;99978.81;4936776;28;20669;-52
2021/12/07 11:39:38;;;;;;;7.95;2.08;;;;;;;7.08;69.32;99976.25;4934191;28;20045;-52
2021/12/07 11:42:16;;;;;;;7.45;2.30;;;;;;;6.86;70.77;99985.91;4942645;28;20059;-51
2021/12/07 11:45:10;;;;;;;9.52;2.30;;;;;;;6.58;72.09;99981.69;4936514;28;20050;-51
2021/12/07 11:48:22;;;;;;;6.93;1.70;;;;;;;6.34;72.98;99985.19;4890389;29;20130;-52
2021/12/07 11:50:53;;;;;;;8.13;2.22;;;;;;;6.17;73.72;99980.53;4896924;29;20530;-54
2021/12/07 11:53:25;;;;;;;8.18;2.30;;;;;;;6.12;73.71;99981.63;4897954;29;20056;-54
2021/12/07 11:55:56;;;;;;;8.15;2.33;;;;;;;6.05;73.84;99964.34;4889800;29;20051;-53
2021/12/07 11:58:23;;;;;;;5.93;2.00;;;;;;;6.20;73.83;99967.28;4891161;29;20059;-52
2021/12/07 12:00:58;;;;;;;15.35;2.40;;;;;;;6.30;73.22;99959.91;4895716;29;20060;-53
2021/12/07 12:03:26;;;;;;;7.35;2.00;;;;;;;6.44;71.55;99951.53;4896458;29;20055;-52
2021/12/07 12:05:56;;;;;;;9.55;2.00;;;;;;;6.59;70.17;99961.50;4892706;29;20085;-53
2021/12/07 12:08:30;;;;;;;9.32;2.10;;;;;;;6.72;68.94;99954.84;4891795;29;20127;-53
2021/12/07 12:11:10;;;;;;;8.23;2.28;;;;;;;6.90;67.84;99951.50;4891292;29;20044;-52
2021/12/07 12:14:06;;;;;;;5.78;1.50;;;;;;;7.01;66.59;99964.25;4881025;29;20056;-53
2021/12/07 12:17:03;;;;;;;9.75;2.03;;;;;;;6.94;67.69;99960.97;4892543;29;20623;-54
2021/12/07 12:20:06;;;;;;;6.78;1.75;;;;;;;6.72;67.10;99939.06;4899936;29;20066;-52
2021/12/07 12:23:47;;;;;;;10.00;2.20;;;;;;;6.63;67.91;99942.88;4921104;28;20051;-51
2021/12/07 12:26:31;;;;;;;7.25;2.03;;;;;;;6.56;67.80;99927.41;4887935;28;20050;-52
2021/12/07 12:29:25;;;;;;;6.70;1.75;;;;;;;6.45;67.89;99919.94;4934117;28;20772;-53
2021/12/07 12:32:00;;;;;;;8.38;2.35;;;;;;;6.32;68.72;99929.16;4929241;28;20051;-52
2021/12/07 12:37:56;;;;;;;12.98;2.90;;;;;;;5.89;68.63;99917.59;4951319;28;20053;-52
2021/12/07 12:40:30;;;;;;;7.68;1.52;;;;;;;5.75;69.15;99917.19;4937210;28;20043;-52
2021/12/07 12:43:04;;;;;;;5.97;2.10;;;;;;;5.64;68.67;99891.28;4941006;28;20051;-52
2021/12/07 12:45:42;;;;;;;7.22;1.73;;;;;;;5.81;68.90;99914.34;4932790;28;20043;-53
2021/12/07 12:48:19;;;;;;;10.18;1.90;;;;;;;5.89;68.56;99907.06;4943283;28;20048;-54
2021/12/07 12:50:50;;;;;;;5.97;1.80;;;;;;;6.02;67.81;99893.47;4937514;28;20055;-52
2021/12/07 12:53:47;;;;;;;5.82;1.73;;;;;;;6.14;68.11;99895.69;4937360;28;20052;-52
2021/12/07 12:56:23;;;;;;;9.48;2.20;;;;;;;6.17;67.19;99895.56;4945216;28;20043;-53
2021/12/07 12:59:09;;;;;;;6.70;2.10;;;;;;;6.15;67.55;99902.63;4949693;28;20144;-56
2021/12/07 13:01:39;;;;;;;4.90;1.90;;;;;;;6.23;66.00;99904.09;4944008;28;20509;-53
2021/12/07 13:04:28;;;;;;;6.88;2.00;;;;;;;6.23;65.62;99897.97;4939873;28;20059;-52
2021/12/07 13:07:34;;;;;;;5.75;1.63;;;;;;;6.22;66.36;99898.88;4956419;28;20054;-52
2021/12/07 13:10:11;;;;;;;6.07;1.30;;;;;;;6.26;65.88;99895.22;4945726;28;20043;-53
2021/12/07 13:12:50;;;;;;;7.63;1.63;;;;;;;6.38;66.47;99888.63;4942762;28;20090;-53
2021/12/07 13:15:37;;;;;;;7.38;1.88;;;;;;;6.59;64.74;99898.34;4940719;28;20689;-53
2021/12/07 13:18:08;;;;;;;5.22;1.35;;;;;;;6.53;63.49;99899.44;4946163;28;20043;-53
2021/12/07 13:20:38;;;;;;;6.32;1.30;;;;;;;6.29;63.41;99888.09;4945906;28;20114;-53
2021/12/07 13:23:14;;;;;;;10.03;2.13;;;;;;;6.05;64.30;99896.88;4948080;28;20086;-52
2021/12/07 13:25:59;;;;;;;7.30;1.58;;;;;;;5.89;64.79;99888.69;4954432;28;20501;-53
2021/12/07 13:28:35;;;;;;;7.47;1.73;;;;;;;5.77;65.99;99891.72;4942136;28;20509;-53
2021/12/07 13:31:21;;;;;;;10.25;1.55;;;;;;;5.69;66.24;99892.88;4948113;28;20500;-53
2021/12/07 13:33:52;;;;;;;7.78;1.65;;;;;;;5.64;65.89;99896.56;4940657;28;20055;-52
2021/12/07 13:36:30;;;;;;;8.57;1.52;;;;;;;5.58;66.65;99890.63;4939994;28;20075;-53
2021/12/07 13:39:06;;;;;;;6.93;1.38;;;;;;;5.59;67.00;99892.34;4948816;28;20481;-53
2021/12/07 13:42:02;;;;;;;5.80;1.77;;;;;;;5.59;66.72;99895.84;4945379;28;20135;-52
2021/12/07 13:44:34;;;;;;;7.38;1.58;;;;;;;5.62;67.12;99892.25;4919247;28;20043;-53
2021/12/07 13:47:04;;;;;;;;;;;;;;;5.63;66.96;99886.09;4946373;28;20055;-52
2021/12/07 13:49:39;;;;;;;;;;;;;;;5.69;66.76;99883.22;4949303;28;19934;-52
2021/12/07 13:52:30;;;;;;;6.32;1.67;;;;;;;5.75;66.39;99893.53;4942740;28;19930;-53
2021/12/07 13:55:29;;;;;;;11.93;1.50;;;;;;;5.67;66.99;99890.31;4926940;28;27398;-52
2021/12/07 13:58:09;;;;;;;8.57;3.13;;;;;;;5.68;67.42;99889.41;4946454;28;20122;-51
2021/12/07 14:00:37;;;;;;;10.90;2.00;;;;;;;5.63;67.54;99888.72;4944643;28;20042;-54
2021/12/07 14:03:12;;;;;;;10.25;1.70;;;;;;;5.60;67.46;99887.06;4937507;28;20211;-53